Time;durP1;ratioP1;P1;durP2;ratioP2;P2;SDS_P1;SDS_P2;PMS_P1;PMS_P2;Temp;Humidity;BMP_temperature;BMP_pressure;BME280_temperature;BME280_humidity;BME280_pressure;Samples;Min_cycle;Max_cycle;Signal;HPM_P1;HPM_P2
2022/12/04 00:01:10;;;;;;;45.50;22.90;;;1.20;99.90;;;;;;462248;257;28047;-64
2022/12/04 00:03:11;;;;;;;45.20;22.20;;;1.20;99.90;;;;;;462293;257;27506;-66
2022/12/04 00:05:13;;;;;;;42.50;21.25;;;1.30;99.90;;;;;;462325;257;27541;-64
2022/12/04 00:07:14;;;;;;;42.10;20.48;;;1.30;99.90;;;;;;462297;257;27485;-64
2022/12/04 00:09:15;;;;;;;38.47;19.37;;;1.30;99.90;;;;;;462281;257;27449;-64
2022/12/04 00:11:16;;;;;;;40.38;19.50;;;1.30;99.90;;;;;;462300;257;27553;-64
2022/12/04 00:13:18;;;;;;;43.03;20.37;;;1.30;99.90;;;;;;462287;257;27603;-65
2022/12/04 00:15:19;;;;;;;40.63;20.83;;;1.30;99.90;;;;;;462289;257;27980;-64
2022/12/04 00:17:20;;;;;;;43.38;21.42;;;1.20;99.90;;;;;;462278;257;28039;-64
2022/12/04 00:19:22;;;;;;;49.92;23.17;;;1.20;99.90;;;;;;462258;257;27476;-64
2022/12/04 00:21:23;;;;;;;48.85;23.40;;;1.10;99.90;;;;;;462317;257;27461;-64
2022/12/04 00:23:24;;;;;;;45.78;22.60;;;1.10;99.90;;;;;;462300;257;27573;-66
2022/12/04 00:25:25;;;;;;;46.42;22.85;;;1.10;99.90;;;;;;462298;257;27579;-64
2022/12/04 00:27:27;;;;;;;50.40;23.30;;;1.10;99.90;;;;;;462273;257;27526;-65
2022/12/04 00:29:28;;;;;;;45.80;21.87;;;1.10;99.90;;;;;;462273;257;28023;-64
2022/12/04 00:31:29;;;;;;;48.78;23.48;;;1.10;99.90;;;;;;462236;257;27970;-63
2022/12/04 00:33:30;;;;;;;46.58;23.17;;;1.00;99.90;;;;;;462276;257;28127;-65
2022/12/04 00:35:32;;;;;;;47.60;23.20;;;1.10;99.90;;;;;;462277;257;27541;-64
2022/12/04 00:37:33;;;;;;;45.42;23.62;;;1.10;99.90;;;;;;462273;257;27489;-64
2022/12/04 00:39:34;;;;;;;47.90;22.30;;;1.10;99.90;;;;;;462284;257;27595;-68
2022/12/04 00:41:35;;;;;;;44.47;23.30;;;1.10;99.90;;;;;;462322;257;27524;-64
2022/12/04 00:43:37;;;;;;;42.22;22.02;;;1.00;99.90;;;;;;462325;257;27524;-65
2022/12/04 00:45:38;;;;;;;42.67;20.52;;;1.10;99.90;;;;;;462325;257;27899;-64
2022/12/04 00:47:39;;;;;;;40.90;21.12;;;1.10;99.90;;;;;;462316;257;28084;-63
2022/12/04 00:49:40;;;;;;;39.92;20.55;;;1.20;99.90;;;;;;462343;257;27506;-63
2022/12/04 00:51:42;;;;;;;48.05;21.95;;;1.20;99.90;;;;;;462343;257;27537;-64
2022/12/04 00:53:43;;;;;;;44.50;21.70;;;1.20;99.90;;;;;;462300;257;27496;-65
2022/12/04 00:55:44;;;;;;;39.88;19.55;;;1.20;99.90;;;;;;462305;257;27467;-63
2022/12/04 00:57:45;;;;;;;43.92;22.25;;;1.10;99.90;;;;;;462285;257;27505;-65
2022/12/04 00:59:47;;;;;;;47.17;23.08;;;1.10;99.90;;;;;;462252;257;27957;-64
2022/12/04 01:01:48;;;;;;;47.13;23.77;;;1.00;99.90;;;;;;462300;257;27942;-64
2022/12/04 01:03:49;;;;;;;47.60;22.40;;;1.10;99.90;;;;;;462296;257;27975;-65
2022/12/04 01:05:50;;;;;;;43.85;22.37;;;1.10;99.90;;;;;;462304;257;27600;-64
2022/12/04 01:07:52;;;;;;;43.42;22.87;;;1.10;99.90;;;;;;462287;257;27497;-65
2022/12/04 01:09:53;;;;;;;43.87;21.52;;;1.00;99.90;;;;;;462305;257;27482;-64
2022/12/04 01:11:54;;;;;;;41.22;20.40;;;0.90;99.90;;;;;;462110;253;27548;-64
2022/12/04 01:13:55;;;;;;;43.92;22.33;;;1.00;99.90;;;;;;462300;257;27593;-65
2022/12/04 01:15:57;;;;;;;39.67;21.60;;;1.00;99.90;;;;;;462263;257;27541;-64
2022/12/04 01:17:58;;;;;;;40.50;21.55;;;0.90;99.90;;;;;;462277;257;28057;-63
2022/12/04 01:19:59;;;;;;;38.08;21.50;;;1.00;99.90;;;;;;462319;257;29065;-65
2022/12/04 01:22:02;;;;;;;38.83;21.20;;;1.00;99.90;;;;;;462314;257;27453;-64
2022/12/04 01:24:02;;;;;;;42.38;21.37;;;1.00;99.90;;;;;;462207;256;27569;-65
2022/12/04 01:26:03;;;;;;;39.90;21.05;;;1.00;99.90;;;;;;462277;257;27474;-64
2022/12/04 01:28:04;;;;;;;39.33;20.60;;;1.00;99.90;;;;;;462267;257;27592;-64
2022/12/04 01:30:06;;;;;;;42.03;21.70;;;1.00;99.90;;;;;;462240;257;28048;-67
2022/12/04 01:32:07;;;;;;;40.90;21.10;;;0.90;99.90;;;;;;462298;257;27924;-64
2022/12/04 01:34:08;;;;;;;41.00;20.15;;;1.00;99.90;;;;;;462255;257;27494;-64
2022/12/04 01:36:09;;;;;;;38.40;19.83;;;1.00;99.90;;;;;;462263;257;27576;-64
2022/12/04 01:38:11;;;;;;;43.78;22.25;;;1.00;99.90;;;;;;462193;257;27587;-64
2022/12/04 01:40:12;;;;;;;37.70;20.50;;;1.00;99.90;;;;;;462132;257;27561;-67
2022/12/04 01:42:14;;;;;;;38.45;21.42;;;1.00;99.90;;;;;;462119;257;27553;-64
2022/12/04 01:44:14;;;;;;;39.45;21.25;;;1.00;99.90;;;;;;462036;257;27953;-64
2022/12/04 01:46:16;;;;;;;35.70;19.60;;;1.00;99.90;;;;;;462054;257;28719;-64
2022/12/04 01:48:17;;;;;;;38.20;20.65;;;1.00;99.90;;;;;;462289;257;27554;-64
2022/12/04 01:50:18;;;;;;;39.58;20.77;;;1.00;99.90;;;;;;462285;257;27495;-66
2022/12/04 01:52:19;;;;;;;41.95;20.12;;;1.00;99.90;;;;;;462290;257;27512;-63
2022/12/04 01:54:21;;;;;;;34.00;18.08;;;1.10;99.90;;;;;;462285;257;27565;-64
2022/12/04 01:56:22;;;;;;;38.35;19.87;;;1.00;99.90;;;;;;462281;257;27465;-64
2022/12/04 01:58:23;;;;;;;34.65;19.75;;;1.00;99.90;;;;;;462279;257;27550;-63
2022/12/04 02:00:24;;;;;;;41.45;20.25;;;1.00;99.90;;;;;;462273;257;28077;-65
2022/12/04 02:02:26;;;;;;;37.38;20.83;;;1.00;99.90;;;;;;462283;257;28008;-64
2022/12/04 02:04:27;;;;;;;36.08;20.02;;;0.90;99.90;;;;;;462285;257;27589;-64
2022/12/04 02:06:28;;;;;;;38.05;20.12;;;0.90;99.90;;;;;;462185;257;27577;-64
2022/12/04 02:08:29;;;;;;;35.10;20.35;;;0.80;99.90;;;;;;462289;257;27508;-64
2022/12/04 02:10:31;;;;;;;36.33;20.10;;;0.90;99.90;;;;;;462283;257;27597;-64
2022/12/04 02:12:32;;;;;;;35.67;18.45;;;0.90;99.90;;;;;;462281;257;27533;-63
2022/12/04 02:14:33;;;;;;;34.70;20.00;;;0.80;99.90;;;;;;462127;257;27505;-64
2022/12/04 02:16:34;;;;;;;35.05;19.15;;;0.80;99.90;;;;;;462293;257;28008;-67
2022/12/04 02:18:36;;;;;;;32.38;18.23;;;0.80;99.90;;;;;;462292;257;29016;-63
2022/12/04 02:20:37;;;;;;;35.65;19.25;;;0.80;99.90;;;;;;462292;257;27600;-65
2022/12/04 02:22:38;;;;;;;34.13;19.08;;;0.80;99.90;;;;;;462321;257;27524;-66
2022/12/04 02:24:41;;;;;;;35.80;20.40;;;0.80;99.90;;;;;;462306;257;27574;-64
2022/12/04 02:26:41;;;;;;;35.38;19.37;;;0.80;99.90;;;;;;462257;257;27489;-67
2022/12/04 02:28:42;;;;;;;34.58;19.37;;;0.80;99.90;;;;;;462325;257;27462;-64
2022/12/04 02:30:44;;;;;;;37.33;21.12;;;0.70;99.90;;;;;;462307;257;27976;-64
2022/12/04 02:32:44;;;;;;;35.00;19.52;;;0.80;99.90;;;;;;462308;253;28015;-64
2022/12/04 02:34:46;;;;;;;36.58;20.52;;;0.70;99.90;;;;;;462323;257;27497;-64
2022/12/04 02:36:47;;;;;;;35.47;20.08;;;0.80;99.90;;;;;;462301;257;27589;-67
2022/12/04 02:38:49;;;;;;;34.20;18.48;;;0.80;99.90;;;;;;462274;257;27481;-64
2022/12/04 02:40:50;;;;;;;34.67;18.67;;;0.80;99.90;;;;;;462270;257;27508;-65
2022/12/04 02:42:51;;;;;;;37.75;19.23;;;0.80;99.90;;;;;;462263;257;27554;-64
2022/12/04 02:44:52;;;;;;;36.38;19.33;;;0.80;99.90;;;;;;462272;257;27498;-64
2022/12/04 02:46:53;;;;;;;40.28;20.08;;;0.80;99.90;;;;;;462300;257;28036;-67
2022/12/04 02:48:55;;;;;;;35.28;19.65;;;0.90;99.90;;;;;;462299;257;29024;-64
2022/12/04 02:50:56;;;;;;;34.33;18.20;;;0.90;99.90;;;;;;462295;257;27496;-64
2022/12/04 02:52:57;;;;;;;34.38;18.70;;;0.90;99.90;;;;;;462266;257;27537;-64
2022/12/04 02:54:58;;;;;;;29.35;15.98;;;0.90;99.90;;;;;;462288;257;27481;-64
2022/12/04 02:57:00;;;;;;;29.65;16.73;;;1.00;99.90;;;;;;462304;257;27677;-66
2022/12/04 02:59:01;;;;;;;33.13;17.67;;;1.00;99.90;;;;;;462207;257;27461;-64
2022/12/04 03:01:02;;;;;;;33.50;17.65;;;0.90;99.90;;;;;;462273;257;27612;-64
2022/12/04 03:03:03;;;;;;;30.62;18.17;;;0.80;99.90;;;;;;462039;257;27914;-64
2022/12/04 03:05:05;;;;;;;31.02;15.75;;;0.70;99.90;;;;;;462243;257;28030;-64
2022/12/04 03:07:06;;;;;;;35.60;18.12;;;0.80;99.90;;;;;;462318;257;27513;-67
2022/12/04 03:09:07;;;;;;;33.92;17.90;;;0.60;99.90;;;;;;462288;257;27542;-64
2022/12/04 03:11:08;;;;;;;30.88;17.65;;;0.60;99.90;;;;;;462287;257;27521;-64
2022/12/04 03:13:10;;;;;;;29.65;16.12;;;0.60;99.90;;;;;;462267;257;27505;-64
2022/12/04 03:15:11;;;;;;;33.85;18.58;;;0.60;99.90;;;;;;462283;257;27477;-63
2022/12/04 03:17:12;;;;;;;33.15;18.75;;;0.60;99.90;;;;;;462291;257;28063;-66
2022/12/04 03:19:13;;;;;;;34.03;18.12;;;0.60;99.90;;;;;;462296;257;27915;-64
2022/12/04 03:21:15;;;;;;;34.90;17.58;;;0.60;99.90;;;;;;462271;257;27576;-64
2022/12/04 03:23:16;;;;;;;34.10;19.08;;;0.60;99.90;;;;;;462294;257;27463;-64
2022/12/04 03:25:17;;;;;;;32.88;19.02;;;0.60;99.90;;;;;;462307;257;27489;-64
2022/12/04 03:27:18;;;;;;;34.50;17.67;;;0.60;99.90;;;;;;462294;257;27489;-67
2022/12/04 03:29:20;;;;;;;35.15;18.98;;;0.70;99.90;;;;;;462287;257;27582;-64
2022/12/04 03:31:21;;;;;;;30.48;17.00;;;0.70;99.90;;;;;;462278;257;27508;-64
2022/12/04 03:33:22;;;;;;;27.33;16.48;;;0.70;99.90;;;;;;462266;257;27942;-64
2022/12/04 03:35:23;;;;;;;31.73;17.42;;;0.60;99.90;;;;;;462305;257;28031;-64
2022/12/04 03:37:25;;;;;;;35.35;18.00;;;0.60;99.90;;;;;;462301;257;27497;-66
2022/12/04 03:39:26;;;;;;;34.67;18.80;;;0.50;99.90;;;;;;462277;257;27462;-64
2022/12/04 03:41:27;;;;;;;30.85;17.35;;;0.50;99.90;;;;;;462277;257;27528;-64
2022/12/04 03:43:28;;;;;;;36.22;19.45;;;0.50;99.90;;;;;;462262;257;27558;-64
2022/12/04 03:45:30;;;;;;;31.17;17.55;;;0.60;99.90;;;;;;462305;257;27501;-64
2022/12/04 03:47:31;;;;;;;35.67;18.45;;;0.50;99.90;;;;;;462188;257;27580;-65
2022/12/04 03:49:32;;;;;;;33.10;18.05;;;0.50;99.90;;;;;;462294;257;28116;-64
2022/12/04 03:51:33;;;;;;;36.08;17.92;;;0.50;99.90;;;;;;462283;257;29169;-64
2022/12/04 03:53:35;;;;;;;33.75;18.17;;;0.50;99.90;;;;;;462294;257;27484;-65
2022/12/04 03:55:36;;;;;;;33.95;18.50;;;0.50;99.90;;;;;;462334;257;27529;-64
2022/12/04 03:57:37;;;;;;;33.30;18.85;;;0.50;99.90;;;;;;462311;257;27486;-67
2022/12/04 03:59:39;;;;;;;34.17;18.60;;;0.50;99.90;;;;;;462300;257;27457;-64
2022/12/04 04:01:40;;;;;;;35.33;18.37;;;0.50;99.90;;;;;;462287;257;27528;-64
2022/12/04 04:03:41;;;;;;;36.53;18.95;;;0.50;99.90;;;;;;462270;257;27925;-64
2022/12/04 04:05:42;;;;;;;33.97;18.10;;;0.50;99.90;;;;;;462300;257;27916;-64
2022/12/04 04:07:44;;;;;;;30.37;18.15;;;0.50;99.90;;;;;;462290;257;27555;-66
2022/12/04 04:09:45;;;;;;;31.80;17.65;;;0.50;99.90;;;;;;462295;257;27533;-64
2022/12/04 04:11:46;;;;;;;32.25;17.75;;;0.60;99.90;;;;;;462247;257;27608;-65
2022/12/04 04:25:25;;;;;;;33.53;18.30;;;0.50;99.90;;;;;;462286;253;27511;-65
2022/12/04 04:27:26;;;;;;;41.50;20.27;;;0.50;99.90;;;;;;462269;257;27484;-65
2022/12/04 04:29:28;;;;;;;31.08;18.15;;;0.50;99.90;;;;;;462298;257;27523;-65
2022/12/04 04:31:29;;;;;;;31.85;18.65;;;0.50;99.90;;;;;;462283;257;27481;-64
2022/12/04 04:33:30;;;;;;;38.40;19.45;;;0.70;99.90;;;;;;462304;257;27513;-67
2022/12/04 04:35:31;;;;;;;30.95;16.98;;;0.60;99.90;;;;;;462297;257;27910;-65
2022/12/04 04:37:33;;;;;;;36.67;19.42;;;0.50;99.90;;;;;;462287;257;27987;-66
2022/12/04 04:39:34;;;;;;;32.85;17.98;;;0.50;99.90;;;;;;462278;257;27532;-64
2022/12/04 04:41:35;;;;;;;34.55;19.83;;;0.60;99.90;;;;;;462303;257;27481;-64
2022/12/04 04:43:36;;;;;;;29.80;18.52;;;0.50;99.90;;;;;;462318;257;27569;-68
2022/12/04 04:45:38;;;;;;;32.85;18.10;;;0.50;99.90;;;;;;462293;257;27473;-65
2022/12/04 04:47:39;;;;;;;33.55;18.45;;;0.50;99.90;;;;;;462318;257;27505;-68
2022/12/04 04:49:40;;;;;;;31.65;17.58;;;0.60;99.90;;;;;;462287;257;27519;-65
2022/12/04 04:51:41;;;;;;;35.55;18.65;;;0.60;99.90;;;;;;462317;257;27931;-65
2022/12/04 04:53:43;;;;;;;32.95;17.92;;;0.50;99.90;;;;;;462295;257;28035;-67
2022/12/04 04:55:44;;;;;;;31.95;18.98;;;0.40;99.90;;;;;;462294;257;27447;-65
2022/12/04 04:57:45;;;;;;;35.42;19.87;;;0.40;99.90;;;;;;462278;257;27497;-64
2022/12/04 04:59:47;;;;;;;35.33;20.12;;;0.40;99.90;;;;;;462301;257;27489;-64
2022/12/04 05:01:48;;;;;;;39.25;19.87;;;0.50;99.90;;;;;;462291;257;27471;-65
2022/12/04 05:03:49;;;;;;;38.35;18.40;;;0.50;99.90;;;;;;462317;257;27505;-67
2022/12/04 05:05:50;;;;;;;35.15;19.10;;;0.50;99.90;;;;;;462296;257;27974;-64
2022/12/04 05:07:52;;;;;;;31.70;18.20;;;0.50;99.90;;;;;;462247;257;28067;-65
2022/12/04 05:09:53;;;;;;;34.40;19.17;;;0.60;99.90;;;;;;462210;257;27489;-65
2022/12/04 05:11:54;;;;;;;32.17;18.33;;;0.60;99.90;;;;;;462292;257;27541;-65
2022/12/04 05:13:55;;;;;;;32.45;18.83;;;0.60;99.90;;;;;;462291;257;27552;-65
2022/12/04 05:15:57;;;;;;;32.22;19.20;;;0.60;99.90;;;;;;462289;257;27470;-65
2022/12/04 05:17:58;;;;;;;35.17;20.27;;;0.50;99.90;;;;;;462274;257;27517;-65
2022/12/04 05:19:59;;;;;;;35.40;19.92;;;0.50;99.90;;;;;;462303;257;27503;-67
2022/12/04 05:22:00;;;;;;;39.80;20.85;;;0.50;99.90;;;;;;462280;257;27968;-64
2022/12/04 05:24:02;;;;;;;36.67;19.90;;;0.50;99.90;;;;;;462292;257;29097;-67
2022/12/04 05:26:03;;;;;;;39.40;20.80;;;0.40;99.90;;;;;;462259;257;27537;-65
2022/12/04 05:28:04;;;;;;;35.22;20.23;;;0.40;99.90;;;;;;462271;257;27496;-65
2022/12/04 05:30:05;;;;;;;35.40;18.62;;;0.40;99.90;;;;;;462302;257;27485;-68
2022/12/04 05:32:07;;;;;;;37.05;19.75;;;0.40;99.90;;;;;;462309;257;27477;-64
2022/12/04 05:34:08;;;;;;;35.30;20.10;;;0.40;99.90;;;;;;462290;257;27639;-65
2022/12/04 05:36:09;;;;;;;36.83;19.62;;;0.50;99.90;;;;;;462275;257;27502;-64
2022/12/04 05:38:10;;;;;;;35.10;20.50;;;0.50;99.90;;;;;;462277;257;28060;-64
2022/12/04 05:40:12;;;;;;;36.55;19.27;;;0.40;99.90;;;;;;462316;257;28233;-68
2022/12/04 05:42:13;;;;;;;38.00;20.70;;;0.50;99.90;;;;;;462304;257;27461;-64
2022/12/04 05:44:14;;;;;;;37.47;20.10;;;0.50;99.90;;;;;;462329;257;27595;-65
2022/12/04 05:46:15;;;;;;;36.22;18.67;;;0.50;99.90;;;;;;462292;257;27469;-65
2022/12/04 05:48:17;;;;;;;33.10;18.73;;;0.60;99.90;;;;;;462289;257;27500;-65
2022/12/04 05:50:18;;;;;;;33.70;18.15;;;0.70;99.90;;;;;;462305;257;27832;-67
2022/12/04 05:52:19;;;;;;;39.70;20.70;;;0.60;99.90;;;;;;462299;257;27901;-64
2022/12/04 05:54:20;;;;;;;41.50;22.37;;;0.50;99.90;;;;;;462317;257;29166;-69
2022/12/04 05:56:22;;;;;;;36.55;20.50;;;0.50;99.90;;;;;;462310;253;27461;-64
2022/12/04 05:58:23;;;;;;;38.10;20.88;;;0.50;99.90;;;;;;462280;257;27617;-64
2022/12/04 06:00:24;;;;;;;35.10;18.95;;;0.50;99.90;;;;;;462315;257;27490;-64
2022/12/04 06:02:25;;;;;;;41.08;20.58;;;0.60;99.90;;;;;;462291;257;27477;-64
2022/12/04 06:04:27;;;;;;;35.95;20.02;;;0.60;99.90;;;;;;462296;257;27504;-66
2022/12/04 06:06:28;;;;;;;34.50;18.80;;;0.50;99.90;;;;;;462270;257;27472;-65
2022/12/04 06:08:29;;;;;;;36.58;19.15;;;0.60;99.90;;;;;;462277;257;28030;-65
2022/12/04 06:10:31;;;;;;;32.97;18.25;;;0.60;99.90;;;;;;462293;257;27968;-68
2022/12/04 06:12:32;;;;;;;33.75;18.42;;;0.70;99.90;;;;;;462305;257;27454;-64
2022/12/04 06:14:33;;;;;;;34.72;18.73;;;0.70;99.90;;;;;;462291;257;27569;-65
2022/12/04 06:16:34;;;;;;;36.97;19.58;;;0.60;99.90;;;;;;462289;257;27533;-65
2022/12/04 06:18:36;;;;;;;42.80;21.45;;;0.60;99.90;;;;;;462251;257;27561;-64
2022/12/04 06:20:37;;;;;;;42.42;21.50;;;0.50;99.90;;;;;;462311;257;27604;-67
2022/12/04 06:22:38;;;;;;;36.00;19.77;;;0.50;99.90;;;;;;462296;257;27469;-64
2022/12/04 06:24:39;;;;;;;44.83;21.40;;;0.50;99.90;;;;;;462297;257;28045;-65
2022/12/04 06:26:41;;;;;;;45.20;20.65;;;0.50;99.90;;;;;;462244;257;27966;-64
2022/12/04 06:28:42;;;;;;;38.90;20.98;;;0.60;99.90;;;;;;462277;257;27585;-64
2022/12/04 06:30:43;;;;;;;41.30;21.42;;;0.60;99.90;;;;;;462299;255;27489;-64
2022/12/04 06:32:44;;;;;;;42.10;21.35;;;0.60;99.90;;;;;;462297;257;27467;-64
2022/12/04 06:34:46;;;;;;;37.65;19.65;;;0.60;99.90;;;;;;462294;257;27585;-65
2022/12/04 06:36:47;;;;;;;40.47;21.77;;;0.60;99.90;;;;;;462281;257;27541;-64
2022/12/04 06:38:48;;;;;;;40.12;20.60;;;0.50;99.90;;;;;;462262;257;27970;-65
2022/12/04 06:40:49;;;;;;;47.17;22.58;;;0.50;99.90;;;;;;462286;257;28060;-67
2022/12/04 06:42:51;;;;;;;42.33;21.77;;;0.50;99.90;;;;;;462285;257;27619;-65
2022/12/04 06:44:52;;;;;;;45.28;22.70;;;0.50;99.90;;;;;;462277;257;27502;-65
2022/12/04 06:46:53;;;;;;;43.25;22.73;;;0.40;99.90;;;;;;462264;257;27497;-65
2022/12/04 06:48:55;;;;;;;44.58;21.58;;;0.50;99.90;;;;;;462302;257;27483;-65
2022/12/04 06:50:56;;;;;;;36.97;21.08;;;0.50;99.90;;;;;;462278;257;27564;-66
2022/12/04 06:52:57;;;;;;;44.08;22.05;;;0.50;99.90;;;;;;462279;257;27533;-64
2022/12/04 06:54:58;;;;;;;44.00;21.42;;;0.50;99.90;;;;;;462277;257;27525;-64
2022/12/04 06:57:00;;;;;;;42.28;21.80;;;0.50;99.90;;;;;;462258;257;27501;-64
2022/12/04 06:59:01;;;;;;;42.20;21.48;;;0.50;99.90;;;;;;462281;257;28049;-65
2022/12/04 07:01:02;;;;;;;40.33;21.58;;;0.60;99.90;;;;;;462297;257;28183;-67
2022/12/04 07:03:03;;;;;;;41.95;20.67;;;0.50;99.90;;;;;;462312;257;27719;-65
2022/12/04 07:05:05;;;;;;;37.75;19.52;;;0.40;99.90;;;;;;462274;257;27590;-65
2022/12/04 07:07:06;;;;;;;42.50;20.02;;;0.50;99.90;;;;;;462227;257;27533;-64
2022/12/04 07:09:08;;;;;;;40.42;20.65;;;0.40;99.90;;;;;;462292;257;27470;-64
2022/12/04 07:11:08;;;;;;;42.53;20.85;;;0.50;99.90;;;;;;462260;257;27605;-65
2022/12/04 07:13:10;;;;;;;38.38;20.80;;;0.50;99.90;;;;;;462298;257;27488;-64
2022/12/04 07:15:11;;;;;;;39.53;18.80;;;0.60;99.90;;;;;;462309;257;28052;-65
2022/12/04 07:17:12;;;;;;;34.72;17.95;;;0.60;99.90;;;;;;462292;257;28785;-64
2022/12/04 07:19:13;;;;;;;37.33;20.05;;;0.60;99.90;;;;;;462336;257;27530;-65
2022/12/04 07:21:15;;;;;;;37.83;18.45;;;0.60;99.90;;;;;;462311;257;27492;-66
2022/12/04 07:23:16;;;;;;;37.85;19.90;;;0.60;99.90;;;;;;462297;257;27546;-65
2022/12/04 07:25:17;;;;;;;36.80;19.27;;;0.60;99.90;;;;;;462287;257;27626;-65
2022/12/04 07:27:18;;;;;;;34.75;18.12;;;0.60;99.90;;;;;;462303;257;28115;-67
2022/12/04 07:29:20;;;;;;;32.13;17.05;;;0.60;99.90;;;;;;462318;257;28006;-64
2022/12/04 07:31:21;;;;;;;33.47;17.48;;;0.60;99.90;;;;;;462302;257;28085;-66
2022/12/04 07:33:22;;;;;;;32.20;17.20;;;0.60;99.90;;;;;;462289;257;27459;-64
2022/12/04 07:35:23;;;;;;;32.38;17.48;;;0.60;99.90;;;;;;462252;257;27521;-65
2022/12/04 07:37:25;;;;;;;31.33;18.33;;;0.60;99.90;;;;;;462282;257;27542;-64
2022/12/04 07:39:27;;;;;;;27.58;15.63;;;0.60;99.90;;;;;;462301;257;27453;-64
2022/12/04 07:41:27;;;;;;;30.23;16.30;;;0.60;99.90;;;;;;462255;257;27524;-66
2022/12/04 07:43:28;;;;;;;33.28;18.70;;;0.60;99.90;;;;;;462253;257;27570;-64
2022/12/04 07:45:30;;;;;;;39.40;18.35;;;0.60;99.90;;;;;;462281;257;27985;-65
2022/12/04 07:47:31;;;;;;;33.80;18.00;;;0.60;99.90;;;;;;462262;257;29039;-65
2022/12/04 07:49:32;;;;;;;34.67;17.92;;;0.60;99.90;;;;;;462299;257;27451;-64
2022/12/04 07:51:34;;;;;;;28.70;15.82;;;0.70;99.90;;;;;;462293;257;27572;-66
2022/12/04 07:53:35;;;;;;;31.10;17.37;;;0.70;99.90;;;;;;462279;257;27575;-64
2022/12/04 07:55:36;;;;;;;34.88;19.17;;;0.60;99.90;;;;;;462248;257;27536;-65
2022/12/04 07:57:37;;;;;;;34.28;18.02;;;0.60;99.90;;;;;;462257;257;27575;-64
2022/12/04 07:59:39;;;;;;;29.42;16.48;;;0.60;99.90;;;;;;462294;257;27509;-64
2022/12/04 08:01:40;;;;;;;33.42;16.90;;;0.70;99.90;;;;;;462291;257;28020;-66
2022/12/04 08:03:41;;;;;;;31.60;16.02;;;0.70;99.90;;;;;;462271;257;28076;-65
2022/12/04 08:05:42;;;;;;;35.88;17.10;;;0.70;99.90;;;;;;462258;257;27482;-64
2022/12/04 08:07:44;;;;;;;30.02;17.17;;;0.80;99.90;;;;;;462252;257;27525;-64
2022/12/04 08:09:45;;;;;;;33.38;18.55;;;0.80;99.90;;;;;;462288;257;27470;-64
2022/12/04 08:11:46;;;;;;;28.85;16.83;;;0.80;99.90;;;;;;462279;257;27561;-65
2022/12/04 08:13:47;;;;;;;34.47;18.25;;;0.80;99.90;;;;;;462256;257;27541;-65
2022/12/04 08:15:49;;;;;;;33.33;17.98;;;0.80;99.90;;;;;;462253;257;28034;-65
2022/12/04 08:17:50;;;;;;;31.20;17.52;;;0.70;99.90;;;;;;462286;257;29142;-67
2022/12/04 08:19:51;;;;;;;30.73;18.05;;;0.70;99.90;;;;;;462274;257;27580;-65
2022/12/04 08:21:52;;;;;;;31.12;17.90;;;0.70;99.90;;;;;;462278;257;27593;-65
2022/12/04 08:23:54;;;;;;;34.20;19.25;;;0.70;99.90;;;;;;462275;257;27477;-64
2022/12/04 08:25:55;;;;;;;30.90;17.50;;;0.80;99.90;;;;;;462254;257;27567;-64
2022/12/04 08:27:56;;;;;;;31.25;17.83;;;0.80;99.90;;;;;;462291;257;27544;-69
2022/12/04 08:29:57;;;;;;;31.37;16.70;;;0.80;99.90;;;;;;462282;257;27558;-64
2022/12/04 08:31:59;;;;;;;27.98;15.60;;;0.90;99.90;;;;;;462269;257;27964;-65
2022/12/04 08:34:01;;;;;;;31.10;18.23;;;0.90;99.90;;;;;;462288;257;27922;-65
2022/12/04 08:36:01;;;;;;;30.35;16.95;;;0.90;99.90;;;;;;462221;257;27536;-65
2022/12/04 08:38:02;;;;;;;28.58;16.52;;;0.80;99.90;;;;;;462308;257;27490;-65
2022/12/04 08:40:04;;;;;;;33.50;18.27;;;0.90;99.90;;;;;;462313;257;27465;-64
2022/12/04 08:42:05;;;;;;;30.30;17.15;;;0.90;99.90;;;;;;462286;257;27510;-66
2022/12/04 08:44:06;;;;;;;32.30;17.70;;;0.90;99.90;;;;;;462280;257;27582;-65
2022/12/04 08:46:08;;;;;;;31.92;18.30;;;0.90;99.90;;;;;;462247;257;27500;-65
2022/12/04 08:48:09;;;;;;;32.17;18.25;;;0.90;99.90;;;;;;462285;257;28116;-65
2022/12/04 08:50:10;;;;;;;33.25;17.48;;;0.80;99.90;;;;;;462291;257;28027;-64
2022/12/04 08:52:11;;;;;;;34.20;18.75;;;0.90;99.90;;;;;;462290;257;27532;-65
2022/12/04 08:54:12;;;;;;;30.45;17.15;;;0.80;99.90;;;;;;462258;257;27457;-65
2022/12/04 08:56:14;;;;;;;30.40;16.67;;;0.90;99.90;;;;;;462253;257;27521;-65
2022/12/04 08:58:15;;;;;;;29.92;17.15;;;1.00;99.90;;;;;;462279;257;27496;-69
2022/12/04 09:00:16;;;;;;;38.67;19.50;;;0.90;99.90;;;;;;462283;257;27460;-65
2022/12/04 09:02:17;;;;;;;31.85;17.10;;;0.90;99.90;;;;;;462307;257;28050;-65
2022/12/04 09:04:19;;;;;;;33.47;18.67;;;0.90;99.90;;;;;;462300;257;27908;-64
2022/12/04 09:06:20;;;;;;;33.10;18.75;;;0.90;99.90;;;;;;462285;257;27489;-65
2022/12/04 09:08:21;;;;;;;33.00;16.95;;;0.90;99.90;;;;;;462196;257;27502;-68
2022/12/04 09:10:23;;;;;;;33.03;17.10;;;1.00;99.90;;;;;;462294;257;27461;-64
2022/12/04 09:12:24;;;;;;;31.30;17.90;;;1.00;99.90;;;;;;462237;257;27508;-65
2022/12/04 09:14:25;;;;;;;30.15;16.77;;;1.00;99.90;;;;;;462176;257;27541;-64
2022/12/04 09:16:26;;;;;;;36.60;19.17;;;1.00;99.90;;;;;;462318;257;27491;-65
2022/12/04 09:18:28;;;;;;;31.52;17.60;;;1.00;99.90;;;;;;462324;257;28034;-67
2022/12/04 09:20:29;;;;;;;28.87;16.50;;;1.00;99.90;;;;;;462302;257;27916;-64
2022/12/04 09:22:30;;;;;;;34.13;18.65;;;1.00;99.90;;;;;;462267;257;27505;-66
2022/12/04 09:24:31;;;;;;;29.80;17.77;;;1.00;99.90;;;;;;462263;257;27509;-65
2022/12/04 09:26:33;;;;;;;29.80;16.85;;;1.00;99.90;;;;;;462285;257;27553;-65
2022/12/04 09:28:34;;;;;;;29.33;17.50;;;1.00;99.90;;;;;;460213;257;36568;-66
2022/12/04 09:30:35;;;;;;;30.52;17.37;;;1.10;99.90;;;;;;462282;257;27477;-65
2022/12/04 09:32:36;;;;;;;28.90;17.02;;;1.10;99.90;;;;;;462254;255;27509;-65
2022/12/04 09:34:38;;;;;;;33.50;19.45;;;1.10;99.90;;;;;;462254;253;28767;-64
2022/12/04 09:36:39;;;;;;;30.65;16.90;;;1.10;99.90;;;;;;462290;257;27941;-64
2022/12/04 09:38:40;;;;;;;36.83;19.83;;;1.00;99.90;;;;;;462284;257;27586;-67
2022/12/04 09:40:41;;;;;;;30.02;16.70;;;1.10;99.90;;;;;;462257;257;27512;-64
2022/12/04 09:42:43;;;;;;;28.73;16.85;;;1.10;99.90;;;;;;462241;257;27493;-65
2022/12/04 09:44:44;;;;;;;30.98;17.27;;;1.10;99.90;;;;;;462234;257;27465;-64
2022/12/04 09:46:45;;;;;;;30.33;17.55;;;1.00;99.90;;;;;;462295;257;27570;-65
2022/12/04 09:48:50;;;;;;;33.80;17.45;;;1.10;99.90;;;;;;462281;257;28054;-66
2022/12/04 09:50:48;;;;;;;31.35;17.15;;;1.20;99.90;;;;;;461833;257;28027;-64
2022/12/04 09:52:49;;;;;;;29.90;17.48;;;1.20;99.90;;;;;;462258;257;27521;-65
2022/12/04 09:54:51;;;;;;;31.15;16.45;;;1.20;99.90;;;;;;462250;257;27477;-64
2022/12/04 09:56:51;;;;;;;30.98;17.17;;;1.20;99.90;;;;;;462337;257;27502;-64
2022/12/04 09:58:53;;;;;;;28.20;16.40;;;1.20;99.90;;;;;;462315;257;27509;-66
2022/12/04 10:00:54;;;;;;;31.05;17.30;;;1.20;99.90;;;;;;462302;257;27492;-65
2022/12/04 10:02:55;;;;;;;29.17;16.15;;;1.20;99.90;;;;;;462252;257;27519;-65
2022/12/04 10:04:56;;;;;;;28.10;16.40;;;1.20;99.90;;;;;;462282;257;28056;-64
2022/12/04 10:06:58;;;;;;;28.27;16.60;;;1.20;99.90;;;;;;462284;257;28021;-64
2022/12/04 10:08:59;;;;;;;27.85;15.35;;;1.30;99.90;;;;;;462301;257;27497;-66
2022/12/04 10:11:00;;;;;;;26.30;15.65;;;1.30;99.90;;;;;;462295;257;27470;-64
2022/12/04 10:13:01;;;;;;;28.05;15.50;;;1.20;99.90;;;;;;462306;257;27513;-65
2022/12/04 10:15:03;;;;;;;26.77;15.48;;;1.30;99.90;;;;;;462311;257;27477;-65
2022/12/04 10:17:04;;;;;;;27.95;16.40;;;1.30;99.90;;;;;;462299;257;27562;-65
2022/12/04 10:19:05;;;;;;;26.10;14.85;;;1.30;99.90;;;;;;462268;257;27588;-66
2022/12/04 10:21:07;;;;;;;24.80;14.10;;;1.30;99.90;;;;;;462279;257;27930;-64
2022/12/04 10:23:08;;;;;;;24.70;14.27;;;1.40;99.90;;;;;;462265;257;28121;-65
2022/12/04 10:25:09;;;;;;;24.10;14.75;;;1.40;99.90;;;;;;462285;257;27492;-65
2022/12/04 10:27:11;;;;;;;29.08;16.67;;;1.40;99.90;;;;;;462315;257;27454;-65
2022/12/04 10:29:12;;;;;;;27.13;15.52;;;1.30;99.90;;;;;;462218;257;27536;-66
2022/12/04 10:31:13;;;;;;;28.27;16.90;;;1.30;99.90;;;;;;462247;257;27465;-64
2022/12/04 10:33:14;;;;;;;28.60;15.88;;;1.30;99.90;;;;;;462259;257;27505;-66